www.cux-wetter.de
Wetterdaten: Donnerstag, 15.11.2007
Datum Zeit Temp. A. Feuchte A. Luftdruck Regen Wind Richtung Richtung Sonnenschein Solar Taupunkt Windchill Windben
15.11.2007 00:03 1,1 C 91 % 1019,5 hPa 0,0 l/m 10,8 km/h (2 Bft) NO 35 0 min 0 W/m -0,2 C -2,9 C 10,8 km/h (2 Bft)
15.11.2007 00:08 1,1 C 91 % 1019,5 hPa 0,0 l/m 13,5 km/h (3 Bft) NO 40 0 min 0 W/m -0,2 C -4,7 C 13,5 km/h (3 Bft)
15.11.2007 00:13 1,1 C 91 % 1019,5 hPa 0,0 l/m 15,0 km/h (3 Bft) NO 40 0 min 0 W/m -0,2 C -5,6 C 15,0 km/h (3 Bft)
15.11.2007 00:18 1,1 C 91 % 1019,5 hPa 0,0 l/m 18,9 km/h (3 Bft) N-NO 30 0 min 0 W/m -0,2 C -7,7 C 18,9 km/h (3 Bft)
15.11.2007 00:23 1,1 C 91 % 1019,5 hPa 0,0 l/m 15,3 km/h (3 Bft) NO 45 0 min 0 W/m -0,2 C -5,8 C 15,3 km/h (3 Bft)
15.11.2007 00:28 1,1 C 92 % 1019,5 hPa 0,0 l/m 12,8 km/h (3 Bft) NO 50 0 min 0 W/m -0,1 C -4,3 C 12,8 km/h (3 Bft)
15.11.2007 00:33 1,1 C 92 % 1019,5 hPa 0,0 l/m 16,8 km/h (3 Bft) NO 45 0 min 0 W/m -0,1 C -6,6 C 16,8 km/h (3 Bft)
15.11.2007 00:38 1,1 C 92 % 1020,5 hPa 0,0 l/m 15,9 km/h (3 Bft) NO 40 0 min 0 W/m -0,1 C -6,2 C 15,9 km/h (3 Bft)
15.11.2007 00:43 1,1 C 92 % 1020,5 hPa 0,0 l/m 10,8 km/h (2 Bft) NO 45 0 min 0 W/m -0,1 C -2,9 C 10,8 km/h (2 Bft)
15.11.2007 00:48 1,1 C 92 % 1020,5 hPa 0,0 l/m 10,8 km/h (2 Bft) NO 45 0 min 0 W/m -0,1 C -2,9 C 10,8 km/h (2 Bft)
15.11.2007 00:53 1,1 C 92 % 1020,5 hPa 0,0 l/m 11,5 km/h (2 Bft) NO 40 0 min 0 W/m -0,1 C -3,4 C 11,5 km/h (2 Bft)
15.11.2007 00:58 1,0 C 92 % 1020,5 hPa 0,0 l/m 6,4 km/h (2 Bft) NO 35 0 min 0 W/m -0,2 C 1,0 C 6,4 km/h (2 Bft)
15.11.2007 01:03 1,0 C 92 % 1020,5 hPa 0,0 l/m 9,4 km/h (2 Bft) NO 40 0 min 0 W/m -0,2 C -1,9 C 9,4 km/h (2 Bft)
15.11.2007 01:08 1,0 C 92 % 1020,5 hPa 0,0 l/m 8,5 km/h (2 Bft) NO 45 0 min 0 W/m -0,2 C -1,1 C 8,5 km/h (2 Bft)
15.11.2007 01:13 1,1 C 92 % 1020,5 hPa 0,0 l/m 10,2 km/h (2 Bft) N-NO 30 0 min 0 W/m -0,1 C -2,4 C 10,2 km/h (2 Bft)
15.11.2007 01:18 1,0 C 92 % 1020,5 hPa 0,0 l/m 10,5 km/h (2 Bft) NO 40 0 min 0 W/m -0,2 C -2,7 C 10,5 km/h (2 Bft)
15.11.2007 01:23 1,0 C 92 % 1020,5 hPa 0,0 l/m 11,4 km/h (2 Bft) NO 50 0 min 0 W/m -0,2 C -3,4 C 11,4 km/h (2 Bft)
15.11.2007 01:28 1,0 C 92 % 1020,5 hPa 0,0 l/m 13,4 km/h (3 Bft) NO 45 0 min 0 W/m -0,2 C -4,8 C 13,4 km/h (3 Bft)
15.11.2007 01:33 1,0 C 92 % 1020,5 hPa 0,0 l/m 8,3 km/h (2 Bft) NO 40 0 min 0 W/m -0,2 C -0,9 C 8,3 km/h (2 Bft)
15.11.2007 01:38 1,0 C 92 % 1020,5 hPa 0,0 l/m 13,0 km/h (3 Bft) NO 35 0 min 0 W/m -0,2 C -4,5 C 13,0 km/h (3 Bft)
15.11.2007 01:43 1,1 C 92 % 1020,5 hPa 0,0 l/m 12,9 km/h (3 Bft) NO 45 0 min 0 W/m -0,1 C -4,3 C 12,9 km/h (3 Bft)
15.11.2007 01:48 1,2 C 92 % 1020,5 hPa 0,0 l/m 9,9 km/h (2 Bft) NO 35 0 min 0 W/m 0,0 C -2,0 C 9,9 km/h (2 Bft)
15.11.2007 01:53 1,2 C 92 % 1020,5 hPa 0,0 l/m 12,3 km/h (2 Bft) N-NO 30 0 min 0 W/m 0,0 C -3,8 C 12,3 km/h (2 Bft)
15.11.2007 01:58 1,2 C 92 % 1020,5 hPa 0,0 l/m 11,0 km/h (2 Bft) N-NO 25 0 min 0 W/m 0,0 C -2,9 C 11,0 km/h (2 Bft)
15.11.2007 02:03 1,1 C 92 % 1020,5 hPa 0,0 l/m 11,2 km/h (2 Bft) NO 40 0 min 0 W/m -0,1 C -3,2 C 11,2 km/h (2 Bft)
15.11.2007 02:08 1,1 C 92 % 1020,5 hPa 0,0 l/m 10,6 km/h (2 Bft) NO 35 0 min 0 W/m -0,1 C -2,7 C 10,6 km/h (2 Bft)
15.11.2007 02:13 1,0 C 92 % 1020,5 hPa 0,0 l/m 11,8 km/h (2 Bft) NO 40 0 min 0 W/m -0,2 C -3,7 C 11,8 km/h (2 Bft)
15.11.2007 02:18 1,0 C 92 % 1020,5 hPa 0,0 l/m 11,6 km/h (2 Bft) N-NO 30 0 min 0 W/m -0,2 C -3,6 C 11,6 km/h (2 Bft)
15.11.2007 02:23 1,1 C 92 % 1020,5 hPa 0,0 l/m 12,5 km/h (2 Bft) NO 35 0 min 0 W/m -0,1 C -4,1 C 12,5 km/h (2 Bft)
15.11.2007 02:28 1,1 C 92 % 1020,5 hPa 0,0 l/m 7,7 km/h (2 Bft) N-NO 20 0 min 0 W/m -0,1 C -0,2 C 7,7 km/h (2 Bft)
15.11.2007 02:33 1,1 C 92 % 1021,5 hPa 0,0 l/m 7,2 km/h (2 Bft) N-NO 20 0 min 0 W/m -0,1 C 0,3 C 7,2 km/h (2 Bft)
15.11.2007 02:38 1,1 C 92 % 1021,5 hPa 0,0 l/m 14,6 km/h (3 Bft) N-NO 25 0 min 0 W/m -0,1 C -5,4 C 14,6 km/h (3 Bft)
15.11.2007 02:43 1,1 C 92 % 1021,5 hPa 0,0 l/m 10,5 km/h (2 Bft) NO 40 0 min 0 W/m -0,1 C -2,6 C 10,5 km/h (2 Bft)
15.11.2007 02:48 1,2 C 92 % 1021,5 hPa 0,0 l/m 10,1 km/h (2 Bft) NO 35 0 min 0 W/m 0,0 C -2,2 C 10,1 km/h (2 Bft)
15.11.2007 02:53 1,2 C 92 % 1021,5 hPa 0,0 l/m 10,5 km/h (2 Bft) N-NO 30 0 min 0 W/m 0,0 C -2,5 C 10,5 km/h (2 Bft)
15.11.2007 02:58 1,2 C 92 % 1021,5 hPa 0,0 l/m 11,8 km/h (2 Bft) NO 35 0 min 0 W/m 0,0 C -3,5 C 11,8 km/h (2 Bft)
15.11.2007 03:03 1,2 C 92 % 1021,5 hPa 0,0 l/m 11,8 km/h (2 Bft) NO 35 0 min 0 W/m 0,0 C -3,5 C 11,8 km/h (2 Bft)
15.11.2007 03:08 1,2 C 92 % 1021,5 hPa 0,0 l/m 8,7 km/h (2 Bft) NO 40 0 min 0 W/m 0,0 C -1,0 C 8,7 km/h (2 Bft)
15.11.2007 03:13 1,3 C 93 % 1021,5 hPa 0,0 l/m 12,0 km/h (2 Bft) NO 35 0 min 0 W/m 0,3 C -3,5 C 12,0 km/h (2 Bft)
15.11.2007 03:18 1,3 C 93 % 1021,5 hPa 0,0 l/m 7,9 km/h (2 Bft) NO 35 0 min 0 W/m 0,3 C -0,2 C 7,9 km/h (2 Bft)
15.11.2007 03:23 1,3 C 93 % 1021,5 hPa 0,0 l/m 11,6 km/h (2 Bft) NO 50 0 min 0 W/m 0,3 C -3,2 C 11,6 km/h (2 Bft)
15.11.2007 03:28 1,3 C 93 % 1021,5 hPa 0,0 l/m 11,6 km/h (2 Bft) NO 50 0 min 0 W/m 0,3 C -3,2 C 11,6 km/h (2 Bft)
15.11.2007 03:33 1,3 C 93 % 1021,5 hPa 0,0 l/m 14,1 km/h (3 Bft) NO 45 0 min 0 W/m 0,3 C -4,9 C 14,1 km/h (3 Bft)
15.11.2007 03:38 1,2 C 92 % 1021,5 hPa 0,0 l/m 6,9 km/h (2 Bft) N-NO 25 0 min 0 W/m 0,0 C 0,7 C 6,9 km/h (2 Bft)
15.11.2007 03:43 1,2 C 92 % 1021,5 hPa 0,0 l/m 10,3 km/h (2 Bft) NO 40 0 min 0 W/m 0,0 C -2,4 C 10,3 km/h (2 Bft)
15.11.2007 03:48 1,2 C 92 % 1021,5 hPa 0,0 l/m 7,7 km/h (2 Bft) NO 35 0 min 0 W/m 0,0 C -0,1 C 7,7 km/h (2 Bft)
15.11.2007 03:53 1,2 C 92 % 1021,5 hPa 0,0 l/m 10,3 km/h (2 Bft) NO 55 0 min 0 W/m 0,0 C -2,4 C 10,3 km/h (2 Bft)
15.11.2007 03:58 1,2 C 92 % 1021,5 hPa 0,0 l/m 12,3 km/h (2 Bft) NO 45 0 min 0 W/m 0,0 C -3,8 C 12,3 km/h (2 Bft)
15.11.2007 04:03 1,2 C 92 % 1021,5 hPa 0,0 l/m 2,4 km/h (1 Bft) N-NO 30 0 min 0 W/m 0,0 C 1,2 C 2,4 km/h (1 Bft)
15.11.2007 04:08 1,2 C 92 % 1021,5 hPa 0,0 l/m 11,1 km/h (2 Bft) N-NO 30 0 min 0 W/m 0,0 C -3,0 C 11,1 km/h (2 Bft)
15.11.2007 04:13 1,2 C 92 % 1021,5 hPa 0,0 l/m 8,1 km/h (2 Bft) NO 35 0 min 0 W/m 0,0 C -0,5 C 8,1 km/h (2 Bft)
15.11.2007 04:18 1,2 C 92 % 1021,5 hPa 0,0 l/m 10,2 km/h (2 Bft) N-NO 30 0 min 0 W/m 0,0 C -2,3 C 10,2 km/h (2 Bft)
15.11.2007 04:23 1,2 C 92 % 1021,5 hPa 0,0 l/m 5,7 km/h (2 Bft) NO 40 0 min 0 W/m 0,0 C 1,2 C 5,7 km/h (2 Bft)
15.11.2007 04:28 1,2 C 92 % 1021,5 hPa 0,0 l/m 9,2 km/h (2 Bft) NO 35 0 min 0 W/m 0,0 C -1,5 C 9,2 km/h (2 Bft)
15.11.2007 04:33 1,3 C 92 % 1021,5 hPa 0,0 l/m 10,3 km/h (2 Bft) N-NO 20 0 min 0 W/m 0,1 C -2,3 C 10,3 km/h (2 Bft)
15.11.2007 04:38 1,3 C 91 % 1021,5 hPa 0,0 l/m 7,1 km/h (2 Bft) NO 50 0 min 0 W/m -0,0 C 0,6 C 7,1 km/h (2 Bft)
15.11.2007 04:43 1,3 C 91 % 1021,5 hPa 0,0 l/m 13,6 km/h (3 Bft) NO 50 0 min 0 W/m -0,0 C -4,6 C 13,6 km/h (3 Bft)
15.11.2007 04:48 1,6 C 92 % 1021,5 hPa 0,0 l/m 6,0 km/h (2 Bft) N-NO 30 0 min 0 W/m 0,4 C 1,6 C 6,0 km/h (2 Bft)
15.11.2007 04:53 2,5 C 94 % 1021,5 hPa 0,0 l/m 9,7 km/h (2 Bft) NO 40 0 min 0 W/m 1,6 C -0,5 C 9,7 km/h (2 Bft)
15.11.2007 04:58 4,1 C 93 % 1021,5 hPa 0,0 l/m 8,4 km/h (2 Bft) N-NO 30 0 min 0 W/m 3,1 C 2,3 C 8,4 km/h (2 Bft)
15.11.2007 05:03 4,2 C 91 % 1021,5 hPa 0,0 l/m 10,6 km/h (2 Bft) NO 40 0 min 0 W/m 2,9 C 0,8 C 10,6 km/h (2 Bft)
15.11.2007 05:08 4,1 C 87 % 1021,5 hPa 0,0 l/m 8,3 km/h (2 Bft) N-NO 20 0 min 0 W/m 2,1 C 2,4 C 8,3 km/h (2 Bft)
15.11.2007 05:13 3,9 C 86 % 1022,5 hPa 0,0 l/m 13,6 km/h (3 Bft) NO 35 0 min 0 W/m 1,8 C -1,5 C 13,6 km/h (3 Bft)
15.11.2007 05:18 3,6 C 87 % 1022,5 hPa 0,0 l/m 10,5 km/h (2 Bft) N-NO 20 0 min 0 W/m 1,6 C 0,2 C 10,5 km/h (2 Bft)
15.11.2007 05:23 3,7 C 87 % 1022,5 hPa 0,0 l/m 11,8 km/h (2 Bft) NO 35 0 min 0 W/m 1,7 C -0,6 C 11,8 km/h (2 Bft)
15.11.2007 05:28 3,9 C 87 % 1022,5 hPa 0,0 l/m 9,7 km/h (2 Bft) NO 35 0 min 0 W/m 1,9 C 1,1 C 9,7 km/h (2 Bft)
15.11.2007 05:33 4,0 C 87 % 1022,5 hPa 0,0 l/m 13,3 km/h (3 Bft) NO 45 0 min 0 W/m 2,0 C -1,2 C 13,3 km/h (3 Bft)
15.11.2007 05:38 4,0 C 86 % 1022,5 hPa 0,0 l/m 10,5 km/h (2 Bft) NO 45 0 min 0 W/m 1,9 C 0,6 C 10,5 km/h (2 Bft)
15.11.2007 05:43 4,0 C 85 % 1022,5 hPa 0,0 l/m 12,8 km/h (3 Bft) NO 35 0 min 0 W/m 1,7 C -0,9 C 12,8 km/h (3 Bft)
15.11.2007 05:48 3,9 C 84 % 1022,5 hPa 0,0 l/m 11,8 km/h (2 Bft) NO 35 0 min 0 W/m 1,4 C -0,4 C 11,8 km/h (2 Bft)
15.11.2007 05:53 3,6 C 85 % 1022,5 hPa 0,0 l/m 4,0 km/h (1 Bft) NO 35 0 min 0 W/m 1,3 C 3,6 C 4,0 km/h (1 Bft)
15.11.2007 05:58 4,0 C 86 % 1022,5 hPa 0,0 l/m 9,8 km/h (2 Bft) N-NO 25 0 min 0 W/m 1,9 C 1,1 C 9,8 km/h (2 Bft)
15.11.2007 06:03 4,1 C 85 % 1022,5 hPa 0,0 l/m 5,7 km/h (2 Bft) N-NO 20 0 min 0 W/m 1,8 C 4,1 C 5,7 km/h (2 Bft)
15.11.2007 06:08 4,5 C 85 % 1022,5 hPa 0,0 l/m 4,0 km/h (1 Bft) NO 35 0 min 0 W/m 2,2 C 4,5 C 4,0 km/h (1 Bft)
15.11.2007 06:13 4,7 C 83 % 1022,5 hPa 0,0 l/m 9,3 km/h (2 Bft) N-NO 30 0 min 0 W/m 2,1 C 2,3 C 9,3 km/h (2 Bft)
15.11.2007 06:18 4,6 C 83 % 1022,5 hPa 0,0 l/m 6,7 km/h (2 Bft) NO 35 0 min 0 W/m 2,0 C 4,3 C 6,7 km/h (2 Bft)
15.11.2007 06:23 4,7 C 83 % 1022,5 hPa 0,0 l/m 6,1 km/h (2 Bft) N-NO 30 0 min 0 W/m 2,1 C 4,7 C 6,1 km/h (2 Bft)
15.11.2007 06:28 4,6 C 82 % 1022,5 hPa 0,0 l/m 7,4 km/h (2 Bft) N-NO 30 0 min 0 W/m 1,8 C 3,7 C 7,4 km/h (2 Bft)
15.11.2007 06:33 4,5 C 83 % 1022,5 hPa 0,0 l/m 11,4 km/h (2 Bft) N-NO 25 0 min 0 W/m 1,9 C 0,6 C 11,4 km/h (2 Bft)
15.11.2007 06:38 4,4 C 82 % 1022,5 hPa 0,0 l/m 10,6 km/h (2 Bft) N-NO 25 0 min 0 W/m 1,6 C 1,0 C 10,6 km/h (2 Bft)
15.11.2007 06:43 4,3 C 81 % 1022,5 hPa 0,0 l/m 8,3 km/h (2 Bft) N-NO 25 0 min 0 W/m 1,3 C 2,6 C 8,3 km/h (2 Bft)
15.11.2007 06:48 4,5 C 83 % 1022,5 hPa 0,0 l/m 6,4 km/h (2 Bft) NO 40 0 min 0 W/m 1,9 C 4,5 C 6,4 km/h (2 Bft)
15.11.2007 06:53 4,4 C 82 % 1022,5 hPa 0,0 l/m 12,1 km/h (2 Bft) NO 50 0 min 0 W/m 1,6 C 0,0 C 12,1 km/h (2 Bft)
15.11.2007 06:58 4,3 C 82 % 1022,5 hPa 0,0 l/m 8,1 km/h (2 Bft) N-NO 20 0 min 0 W/m 1,5 C 2,8 C 8,1 km/h (2 Bft)
15.11.2007 07:03 4,1 C 82 % 1022,5 hPa 0,0 l/m 10,1 km/h (2 Bft) NO 35 0 min 0 W/m 1,3 C 1,0 C 10,1 km/h (2 Bft)
15.11.2007 07:08 4,0 C 82 % 1022,5 hPa 0,0 l/m 7,4 km/h (2 Bft) NO 35 0 min 0 W/m 1,2 C 3,1 C 7,4 km/h (2 Bft)
15.11.2007 07:13 4,3 C 84 % 1023,5 hPa 0,0 l/m 7,4 km/h (2 Bft) N-NO 25 0 min 0 W/m 1,8 C 3,4 C 7,4 km/h (2 Bft)
15.11.2007 07:18 4,4 C 82 % 1023,5 hPa 0,0 l/m 5,4 km/h (2 Bft) N-NO 30 0 min 0 W/m 1,6 C 4,4 C 5,4 km/h (2 Bft)
15.11.2007 07:23 4,6 C 82 % 1023,5 hPa 0,0 l/m 3,6 km/h (1 Bft) N-NO 30 0 min 0 W/m 1,8 C 4,6 C 3,6 km/h (1 Bft)
15.11.2007 07:28 4,6 C 82 % 1023,5 hPa 0,0 l/m 6,8 km/h (2 Bft) NO 45 0 min 0 W/m 1,8 C 4,3 C 6,8 km/h (2 Bft)
15.11.2007 07:33 4,6 C 81 % 1023,5 hPa 0,0 l/m 8,0 km/h (2 Bft) NO 35 0 min 0 W/m 1,6 C 3,2 C 8,0 km/h (2 Bft)
15.11.2007 07:38 4,5 C 81 % 1023,5 hPa 0,0 l/m 0,1 km/h (0 Bft) N-NO 30 0 min 0 W/m 1,5 C 4,5 C 0,1 km/h (0 Bft)
15.11.2007 07:43 4,7 C 82 % 1023,5 hPa 0,0 l/m 0,3 km/h (0 Bft) N-NO 30 0 min 0 W/m 1,9 C 4,7 C 0,3 km/h (0 Bft)
15.11.2007 07:48 4,7 C 80 % 1023,5 hPa 0,0 l/m 0,3 km/h (0 Bft) NO 35 0 min 0 W/m 1,6 C 4,7 C 0,3 km/h (0 Bft)
15.11.2007 07:53 3,7 C 78 % 1023,5 hPa 0,0 l/m 3,0 km/h (1 Bft) NO 40 0 min 0 W/m 0,2 C 3,7 C 3,0 km/h (1 Bft)
15.11.2007 07:58 3,1 C 78 % 1023,5 hPa 0,0 l/m 4,2 km/h (1 Bft) N-NO 30 0 min 0 W/m -0,4 C 3,1 C 4,2 km/h (1 Bft)
15.11.2007 08:03 2,2 C 80 % 1023,5 hPa 0,0 l/m 0,6 km/h (0 Bft) N-NO 25 0 min 0 W/m -0,9 C 2,2 C 0,6 km/h (0 Bft)
15.11.2007 08:08 1,5 C 81 % 1023,5 hPa 0,0 l/m 4,8 km/h (1 Bft) N-NO 25 0 min 0 W/m -1,4 C 1,5 C 4,8 km/h (1 Bft)
15.11.2007 08:13 1,2 C 82 % 1023,5 hPa 0,0 l/m 0,3 km/h (0 Bft) N-NO 25 0 min 0 W/m -1,5 C 1,2 C 0,3 km/h (0 Bft)
15.11.2007 08:18 1,0 C 83 % 1023,5 hPa 0,0 l/m 0,7 km/h (0 Bft) N-NO 20 0 min 0 W/m -1,6 C 1,0 C 0,7 km/h (0 Bft)
15.11.2007 08:23 0,9 C 84 % 1023,5 hPa 0,0 l/m 4,6 km/h (1 Bft) N-NO 30 0 min 0 W/m -1,5 C 0,9 C 4,6 km/h (1 Bft)
15.11.2007 08:28 0,9 C 85 % 1023,5 hPa 0,0 l/m 10,4 km/h (2 Bft) N-NO 30 0 min 0 W/m -1,3 C -2,8 C 10,4 km/h (2 Bft)
15.11.2007 08:33 0,9 C 86 % 1023,5 hPa 0,0 l/m 6,7 km/h (2 Bft) N-NO 25 0 min 0 W/m -1,2 C 0,6 C 6,7 km/h (2 Bft)
15.11.2007 08:38 1,0 C 86 % 1023,5 hPa 0,0 l/m 0,4 km/h (0 Bft) N-NO 30 0 min 0 W/m -1,1 C 1,0 C 0,4 km/h (0 Bft)
15.11.2007 08:43 1,0 C 86 % 1023,5 hPa 0,0 l/m 6,5 km/h (2 Bft) N 5 0 min 0 W/m -1,1 C 0,9 C 6,5 km/h (2 Bft)
15.11.2007 08:48 1,0 C 87 % 1023,5 hPa 0,0 l/m 8,2 km/h (2 Bft) NO 40 0 min 0 W/m -0,9 C -0,8 C 8,2 km/h (2 Bft)
15.11.2007 08:53 1,1 C 87 % 1023,5 hPa 0,0 l/m 5,6 km/h (2 Bft) N-NO 25 0 min 0 W/m -0,8 C 1,1 C 5,6 km/h (2 Bft)
15.11.2007 08:58 1,2 C 88 % 1023,5 hPa 0,0 l/m 5,1 km/h (1 Bft) NO 35 0 min 0 W/m -0,6 C 1,2 C 5,1 km/h (1 Bft)
15.11.2007 09:03 1,2 C 88 % 1023,5 hPa 0,0 l/m 9,0 km/h (2 Bft) N-NO 20 0 min 0 W/m -0,6 C -1,3 C 9,0 km/h (2 Bft)
15.11.2007 09:08 1,2 C 88 % 1023,5 hPa 0,0 l/m 7,1 km/h (2 Bft) N-NO 30 0 min 0 W/m -0,6 C 0,5 C 7,1 km/h (2 Bft)
15.11.2007 09:13 1,3 C 88 % 1023,5 hPa 0,0 l/m 8,8 km/h (2 Bft) N-NO 15 0 min 0 W/m -0,5 C -1,0 C 8,8 km/h (2 Bft)
15.11.2007 09:18 1,4 C 88 % 1023,5 hPa 0,0 l/m 4,7 km/h (1 Bft) N-NO 15 0 min 0 W/m -0,4 C 1,4 C 4,7 km/h (1 Bft)
15.11.2007 09:23 1,5 C 88 % 1023,5 hPa 0,0 l/m 6,3 km/h (2 Bft) N 10 0 min 0 W/m -0,3 C 1,5 C 6,3 km/h (2 Bft)
15.11.2007 09:28 1,6 C 89 % 1024,5 hPa 0,0 l/m 7,4 km/h (2 Bft) N-NO 20 0 min 0 W/m -0,0 C 0,6 C 7,4 km/h (2 Bft)
15.11.2007 09:33 1,7 C 89 % 1024,5 hPa 0,0 l/m 8,3 km/h (2 Bft) N 10 0 min 0 W/m 0,1 C -0,1 C 8,3 km/h (2 Bft)
15.11.2007 09:38 1,8 C 89 % 1024,5 hPa 0,0 l/m 4,5 km/h (1 Bft) N-NO 15 0 min 0 W/m 0,2 C 1,8 C 4,5 km/h (1 Bft)
15.11.2007 09:43 1,9 C 89 % 1024,5 hPa 0,0 l/m 7,0 km/h (2 Bft) N-NO 25 0 min 0 W/m 0,3 C 1,3 C 7,0 km/h (2 Bft)
15.11.2007 09:48 1,9 C 89 % 1024,5 hPa 0,0 l/m 9,7 km/h (2 Bft) N-NO 20 0 min 0 W/m 0,3 C -1,1 C 9,7 km/h (2 Bft)
15.11.2007 09:53 2,1 C 89 % 1024,5 hPa 0,0 l/m 7,2 km/h (2 Bft) N-NO 25 0 min 0 W/m 0,5 C 1,3 C 7,2 km/h (2 Bft)
15.11.2007 09:58 2,2 C 90 % 1024,5 hPa 0,0 l/m 8,1 km/h (2 Bft) N-NO 25 0 min 0 W/m 0,7 C 0,6 C 8,1 km/h (2 Bft)
15.11.2007 10:03 2,5 C 90 % 1024,5 hPa 0,0 l/m 9,7 km/h (2 Bft) N-NO 20 0 min 0 W/m 1,0 C -0,5 C 9,7 km/h (2 Bft)
15.11.2007 10:08 2,6 C 90 % 1024,5 hPa 0,0 l/m 11,8 km/h (2 Bft) NO 35 0 min 0 W/m 1,1 C -1,9 C 11,8 km/h (2 Bft)
15.11.2007 10:13 2,9 C 90 % 1024,5 hPa 0,0 l/m 5,6 km/h (2 Bft) N 5 0 min 0 W/m 1,4 C 2,9 C 5,6 km/h (2 Bft)
15.11.2007 10:18 3,2 C 89 % 1024,5 hPa 0,0 l/m 9,3 km/h (2 Bft) N 5 0 min 0 W/m 1,6 C 0,6 C 9,3 km/h (2 Bft)
15.11.2007 10:23 3,5 C 89 % 1024,5 hPa 0,0 l/m 7,6 km/h (2 Bft) N-NO 15 0 min 0 W/m 1,9 C 2,4 C 7,6 km/h (2 Bft)
15.11.2007 10:28 3,6 C 88 % 1024,5 hPa 0,0 l/m 11,0 km/h (2 Bft) N-NO 15 0 min 0 W/m 1,8 C -0,2 C 11,0 km/h (2 Bft)
15.11.2007 10:33 3,9 C 87 % 1024,5 hPa 0,0 l/m 7,6 km/h (2 Bft) N-NO 30 0 min 0 W/m 1,9 C 2,8 C 7,6 km/h (2 Bft)
15.11.2007 10:38 4,0 C 87 % 1024,5 hPa 0,0 l/m 7,6 km/h (2 Bft) N-NO 15 0 min 0 W/m 2,0 C 2,9 C 7,6 km/h (2 Bft)
15.11.2007 10:43 4,1 C 86 % 1024,5 hPa 0,0 l/m 7,2 km/h (2 Bft) N 360 0 min 0 W/m 2,0 C 3,4 C 7,2 km/h (2 Bft)
15.11.2007 10:48 4,3 C 84 % 1024,5 hPa 0,0 l/m 14,1 km/h (3 Bft) N-NO 20 0 min 0 W/m 1,8 C -1,3 C 14,1 km/h (3 Bft)
15.11.2007 10:53 4,3 C 84 % 1024,5 hPa 0,0 l/m 14,0 km/h (3 Bft) N 10 0 min 0 W/m 1,8 C -1,2 C 14,0 km/h (3 Bft)
15.11.2007 10:58 4,3 C 83 % 1024,5 hPa 0,0 l/m 11,3 km/h (2 Bft) N 10 0 min 0 W/m 1,7 C 0,4 C 11,3 km/h (2 Bft)
15.11.2007 11:03 4,2 C 81 % 1024,5 hPa 0,0 l/m 12,1 km/h (2 Bft) N-NO 25 0 min 0 W/m 1,2 C -0,2 C 12,1 km/h (2 Bft)
15.11.2007 11:08 4,3 C 82 % 1024,5 hPa 0,0 l/m 7,2 km/h (2 Bft) N-NO 30 0 min 0 W/m 1,5 C 3,6 C 7,2 km/h (2 Bft)
15.11.2007 11:13 4,3 C 82 % 1024,5 hPa 0,0 l/m 5,7 km/h (2 Bft) N-NO 30 0 min 0 W/m 1,5 C 4,3 C 5,7 km/h (2 Bft)
15.11.2007 11:18 4,2 C 82 % 1024,5 hPa 0,0 l/m 5,0 km/h (1 Bft) N-NO 20 0 min 0 W/m 1,4 C 4,2 C 5,0 km/h (1 Bft)
15.11.2007 11:23 4,0 C 82 % 1024,5 hPa 0,0 l/m 8,9 km/h (2 Bft) N-NO 20 0 min 0 W/m 1,2 C 1,8 C 8,9 km/h (2 Bft)
15.11.2007 11:28 4,1 C 82 % 1024,5 hPa 0,0 l/m 9,5 km/h (2 Bft) N 5 0 min 0 W/m 1,3 C 1,4 C 9,5 km/h (2 Bft)
15.11.2007 11:33 4,1 C 82 % 1024,5 hPa 0,0 l/m 10,3 km/h (2 Bft) N 5 0 min 0 W/m 1,3 C 0,9 C 10,3 km/h (2 Bft)
15.11.2007 11:38 4,4 C 81 % 1024,5 hPa 0,0 l/m 8,2 km/h (2 Bft) N 10 0 min 0 W/m 1,4 C 2,8 C 8,2 km/h (2 Bft)
15.11.2007 11:43 4,5 C 79 % 1024,5 hPa 0,0 l/m 8,3 km/h (2 Bft) N 10 0 min 0 W/m 1,2 C 2,8 C 8,3 km/h (2 Bft)
15.11.2007 11:48 4,5 C 80 % 1024,5 hPa 0,0 l/m 9,3 km/h (2 Bft) N-NO 25 0 min 0 W/m 1,4 C 2,0 C 9,3 km/h (2 Bft)
15.11.2007 11:53 4,4 C 78 % 1024,5 hPa 0,0 l/m 10,1 km/h (2 Bft) N 10 0 min 0 W/m 0,9 C 1,3 C 10,1 km/h (2 Bft)
15.11.2007 11:58 4,2 C 76 % 1024,5 hPa 0,0 l/m 11,5 km/h (2 Bft) N-NO 20 0 min 0 W/m 0,4 C 0,2 C 11,5 km/h (2 Bft)
15.11.2007 12:03 4,0 C 75 % 1024,5 hPa 0,0 l/m 7,0 km/h (2 Bft) N-NO 20 0 min 0 W/m -0,0 C 3,5 C 7,0 km/h (2 Bft)
15.11.2007 12:08 4,1 C 75 % 1024,5 hPa 0,0 l/m 7,7 km/h (2 Bft) N 360 0 min 0 W/m 0,1 C 2,9 C 7,7 km/h (2 Bft)
15.11.2007 12:13 4,3 C 74 % 1024,5 hPa 0,0 l/m 10,3 km/h (2 Bft) N 360 0 min 0 W/m 0,1 C 1,1 C 10,3 km/h (2 Bft)
15.11.2007 12:18 4,3 C 72 % 1024,5 hPa 0,0 l/m 12,9 km/h (3 Bft) N-NO 20 0 min 0 W/m -0,3 C -0,6 C 12,9 km/h (3 Bft)
15.11.2007 12:23 4,3 C 71 % 1024,5 hPa 0,0 l/m 12,3 km/h (2 Bft) N 10 0 min 0 W/m -0,5 C -0,2 C 12,3 km/h (2 Bft)
15.11.2007 12:28 4,0 C 72 % 1024,5 hPa 0,0 l/m 12,4 km/h (2 Bft) N 355 0 min 0 W/m -0,6 C -0,6 C 12,4 km/h (2 Bft)
15.11.2007 12:33 4,2 C 71 % 1024,5 hPa 0,0 l/m 12,1 km/h (2 Bft) N-NO 15 0 min 0 W/m -0,6 C -0,2 C 12,1 km/h (2 Bft)
15.11.2007 12:38 4,3 C 70 % 1024,5 hPa 0,0 l/m 12,8 km/h (3 Bft) N-NO 25 0 min 0 W/m -0,7 C -0,5 C 12,8 km/h (3 Bft)
15.11.2007 12:43 4,3 C 70 % 1024,5 hPa 0,0 l/m 17,0 km/h (3 Bft) N 5 0 min 0 W/m -0,7 C -2,8 C 17,0 km/h (3 Bft)
15.11.2007 12:48 4,5 C 69 % 1024,5 hPa 0,0 l/m 16,1 km/h (3 Bft) N 10 0 min 0 W/m -0,7 C -2,1 C 16,1 km/h (3 Bft)
15.11.2007 12:53 4,4 C 68 % 1024,5 hPa 0,0 l/m 12,3 km/h (2 Bft) N-NO 20 0 min 0 W/m -1,0 C -0,1 C 12,3 km/h (2 Bft)
15.11.2007 12:58 4,3 C 68 % 1024,5 hPa 0,0 l/m 2,5 km/h (1 Bft) N-NO 25 0 min 0 W/m -1,1 C 4,3 C 2,5 km/h (1 Bft)
15.11.2007 13:03 4,3 C 70 % 1024,5 hPa 0,0 l/m 11,8 km/h (2 Bft) N-NO 25 0 min 0 W/m -0,7 C 0,1 C 11,8 km/h (2 Bft)
15.11.2007 13:08 4,3 C 71 % 1024,5 hPa 0,0 l/m 6,6 km/h (2 Bft) N 5 0 min 0 W/m -0,5 C 4,1 C 6,6 km/h (2 Bft)
15.11.2007 13:13 4,3 C 71 % 1024,5 hPa 0,0 l/m 6,7 km/h (2 Bft) N 360 0 min 0 W/m -0,5 C 4,0 C 6,7 km/h (2 Bft)
15.11.2007 13:18 4,3 C 72 % 1024,5 hPa 0,0 l/m 10,4 km/h (2 Bft) N-NO 20 0 min 0 W/m -0,3 C 1,0 C 10,4 km/h (2 Bft)
15.11.2007 13:23 4,3 C 70 % 1024,5 hPa 0,0 l/m 8,8 km/h (2 Bft) N-NO 15 0 min 0 W/m -0,7 C 2,2 C 8,8 km/h (2 Bft)
15.11.2007 13:28 4,4 C 71 % 1024,5 hPa 0,0 l/m 8,0 km/h (2 Bft) N-NO 25 0 min 0 W/m -0,4 C 3,0 C 8,0 km/h (2 Bft)
15.11.2007 13:33 4,3 C 71 % 1024,5 hPa 0,0 l/m 6,6 km/h (2 Bft) N-NO 15 0 min 0 W/m -0,5 C 4,1 C 6,6 km/h (2 Bft)
15.11.2007 13:38 4,3 C 70 % 1023,5 hPa 0,0 l/m 8,5 km/h (2 Bft) N-NO 25 0 min 0 W/m -0,7 C 2,5 C 8,5 km/h (2 Bft)
15.11.2007 13:43 4,4 C 71 % 1023,5 hPa 0,0 l/m 5,8 km/h (2 Bft) N-NO 25 0 min 0 W/m -0,4 C 4,4 C 5,8 km/h (2 Bft)
15.11.2007 13:48 4,4 C 71 % 1023,5 hPa 0,0 l/m 8,3 km/h (2 Bft) N-NO 25 0 min 0 W/m -0,4 C 2,7 C 8,3 km/h (2 Bft)
15.11.2007 13:53 4,4 C 71 % 1023,5 hPa 0,0 l/m 7,2 km/h (2 Bft) N 10 0 min 0 W/m -0,4 C 3,7 C 7,2 km/h (2 Bft)
15.11.2007 13:58 4,3 C 71 % 1023,5 hPa 0,0 l/m 8,1 km/h (2 Bft) N 10 0 min 0 W/m -0,5 C 2,8 C 8,1 km/h (2 Bft)
15.11.2007 14:03 4,4 C 71 % 1023,5 hPa 0,0 l/m 7,9 km/h (2 Bft) N-NO 25 0 min 0 W/m -0,4 C 3,1 C 7,9 km/h (2 Bft)
15.11.2007 14:08 4,4 C 71 % 1023,5 hPa 0,0 l/m 3,7 km/h (1 Bft) N 5 0 min 0 W/m -0,4 C 4,4 C 3,7 km/h (1 Bft)
15.11.2007 14:13 4,4 C 71 % 1023,5 hPa 0,0 l/m 1,8 km/h (1 Bft) N 10 0 min 0 W/m -0,4 C 4,4 C 1,8 km/h (1 Bft)
15.11.2007 14:18 4,3 C 70 % 1023,5 hPa 0,0 l/m 5,6 km/h (2 Bft) N-NO 15 0 min 0 W/m -0,7 C 4,3 C 5,6 km/h (2 Bft)
15.11.2007 14:23 4,2 C 69 % 1023,5 hPa 0,0 l/m 8,5 km/h (2 Bft) N 360 0 min 0 W/m -1,0 C 2,3 C 8,5 km/h (2 Bft)
15.11.2007 14:28 4,0 C 69 % 1023,5 hPa 0,0 l/m 10,6 km/h (2 Bft) N 10 0 min 0 W/m -1,2 C 0,5 C 10,6 km/h (2 Bft)
15.11.2007 14:33 4,0 C 69 % 1023,5 hPa 0,0 l/m 6,5 km/h (2 Bft) N-NO 30 0 min 0 W/m -1,2 C 3,9 C 6,5 km/h (2 Bft)
15.11.2007 14:38 4,0 C 69 % 1023,5 hPa 0,0 l/m 7,7 km/h (2 Bft) NO 35 0 min 0 W/m -1,2 C 2,8 C 7,7 km/h (2 Bft)
15.11.2007 14:43 3,9 C 69 % 1023,5 hPa 0,0 l/m 5,2 km/h (1 Bft) N-NO 30 0 min 0 W/m -1,3 C 3,9 C 5,2 km/h (1 Bft)
15.11.2007 14:48 3,9 C 69 % 1023,5 hPa 0,0 l/m 6,3 km/h (2 Bft) N 10 0 min 0 W/m -1,3 C 3,9 C 6,3 km/h (2 Bft)
15.11.2007 14:53 3,9 C 69 % 1023,5 hPa 0,0 l/m 2,7 km/h (1 Bft) N-NO 20 0 min 0 W/m -1,3 C 3,9 C 2,7 km/h (1 Bft)
15.11.2007 14:58 3,8 C 70 % 1023,5 hPa 0,0 l/m 4,9 km/h (1 Bft) N-NO 15 0 min 0 W/m -1,2 C 3,8 C 4,9 km/h (1 Bft)
15.11.2007 15:03 3,9 C 69 % 1023,5 hPa 0,0 l/m 8,3 km/h (2 Bft) N-NO 15 0 min 0 W/m -1,3 C 2,2 C 8,3 km/h (2 Bft)
15.11.2007 15:08 3,8 C 68 % 1023,5 hPa 0,0 l/m 11,8 km/h (2 Bft) N 360 0 min 0 W/m -1,6 C -0,5 C 11,8 km/h (2 Bft)
15.11.2007 15:13 3,7 C 69 % 1023,5 hPa 0,0 l/m 1,3 km/h (1 Bft) N 5 0 min 0 W/m -1,4 C 3,7 C 1,3 km/h (1 Bft)
15.11.2007 15:18 3,7 C 69 % 1023,5 hPa 0,0 l/m 8,9 km/h (2 Bft) N-NO 30 0 min 0 W/m -1,4 C 1,5 C 8,9 km/h (2 Bft)
15.11.2007 15:23 3,7 C 68 % 1023,5 hPa 0,0 l/m 8,1 km/h (2 Bft) N-NO 25 0 min 0 W/m -1,6 C 2,2 C 8,1 km/h (2 Bft)
15.11.2007 15:28 3,6 C 67 % 1023,5 hPa 0,0 l/m 8,7 km/h (2 Bft) N 5 0 min 0 W/m -1,9 C 1,5 C 8,7 km/h (2 Bft)
15.11.2007 15:33 3,7 C 69 % 1023,5 hPa 0,0 l/m 7,0 km/h (2 Bft) N 10 0 min 0 W/m -1,4 C 3,1 C 7,0 km/h (2 Bft)
15.11.2007 15:38 3,7 C 68 % 1023,5 hPa 0,0 l/m 7,0 km/h (2 Bft) N 10 0 min 0 W/m -1,6 C 3,1 C 7,0 km/h (2 Bft)
15.11.2007 15:43 3,5 C 69 % 1023,5 hPa 0,0 l/m 5,7 km/h (2 Bft) N 355 0 min 0 W/m -1,6 C 3,5 C 5,7 km/h (2 Bft)
15.11.2007 15:48 3,5 C 69 % 1023,5 hPa 0,0 l/m 3,7 km/h (1 Bft) N-NO 15 0 min 0 W/m -1,6 C 3,5 C 3,7 km/h (1 Bft)
15.11.2007 15:53 3,5 C 68 % 1023,5 hPa 0,0 l/m 5,5 km/h (2 Bft) N-NO 15 0 min 0 W/m -1,8 C 3,5 C 5,5 km/h (2 Bft)
15.11.2007 15:58 3,5 C 69 % 1023,5 hPa 0,0 l/m 5,6 km/h (2 Bft) N-NO 25 0 min 0 W/m -1,6 C 3,5 C 5,6 km/h (2 Bft)
15.11.2007 16:03 3,5 C 69 % 1023,5 hPa 0,0 l/m 0,0 km/h (0 Bft) N-NO 25 0 min 0 W/m -1,6 C 3,5 C 0,0 km/h (0 Bft)
15.11.2007 16:08 3,3 C 69 % 1023,5 hPa 0,0 l/m 0,4 km/h (0 Bft) N-NO 15 0 min 0 W/m -1,8 C 3,3 C 0,4 km/h (0 Bft)
15.11.2007 16:13 3,3 C 69 % 1023,5 hPa 0,0 l/m 0,0 km/h (0 Bft) N-NO 15 0 min 0 W/m -1,8 C 3,3 C 0,0 km/h (0 Bft)
15.11.2007 16:18 3,1 C 70 % 1023,5 hPa 0,0 l/m 0,0 km/h (0 Bft) N-NO 15 0 min 0 W/m -1,8 C 3,1 C 0,0 km/h (0 Bft)
15.11.2007 16:23 2,9 C 70 % 1023,5 hPa 0,0 l/m 0,0 km/h (0 Bft) N-NO 15 0 min 0 W/m -2,0 C 2,9 C 0,0 km/h (0 Bft)
15.11.2007 16:28 2,8 C 70 % 1023,5 hPa 0,0 l/m 0,0 km/h (0 Bft) N-NO 15 0 min 0 W/m -2,1 C 2,8 C 0,0 km/h (0 Bft)
15.11.2007 16:33 2,6 C 71 % 1023,5 hPa 0,0 l/m 0,0 km/h (0 Bft) N-NO 15 0 min 0 W/m -2,1 C 2,6 C 0,0 km/h (0 Bft)
15.11.2007 16:38 2,3 C 71 % 1023,5 hPa 0,0 l/m 0,0 km/h (0 Bft) N-NO 15 0 min 0 W/m -2,4 C 2,3 C 0,0 km/h (0 Bft)
15.11.2007 16:43 2,2 C 71 % 1023,5 hPa 0,0 l/m 0,0 km/h (0 Bft) N-NO 15 0 min 0 W/m -2,5 C 2,2 C 0,0 km/h (0 Bft)
15.11.2007 16:48 1,9 C 72 % 1023,5 hPa 0,0 l/m 0,0 km/h (0 Bft) N-NO 15 0 min 0 W/m -2,6 C 1,9 C 0,0 km/h (0 Bft)
15.11.2007 16:53 1,7 C 72 % 1023,5 hPa 0,0 l/m 0,0 km/h (0 Bft) N-NO 15 0 min 0 W/m -2,8 C 1,7 C 0,0 km/h (0 Bft)
15.11.2007 16:58 1,7 C 72 % 1023,5 hPa 0,0 l/m 0,0 km/h (0 Bft) N-NO 15 0 min 0 W/m -2,8 C 1,7 C 0,0 km/h (0 Bft)
15.11.2007 17:03 1,5 C 73 % 1023,5 hPa 0,0 l/m 0,0 km/h (0 Bft) N-NO 15 0 min 0 W/m -2,8 C 1,5 C 0,0 km/h (0 Bft)
15.11.2007 17:08 1,2 C 73 % 1023,5 hPa 0,0 l/m 0,0 km/h (0 Bft) N-NO 15 0 min 0 W/m -3,1 C 1,2 C 0,0 km/h (0 Bft)
15.11.2007 17:13 1,1 C 74 % 1023,5 hPa 0,0 l/m 0,0 km/h (0 Bft) N-NO 15 0 min 0 W/m -3,0 C 1,1 C 0,0 km/h (0 Bft)
15.11.2007 17:18 1,1 C 74 % 1023,5 hPa 0,0 l/m 0,0 km/h (0 Bft) N-NO 15 0 min 0 W/m -3,0 C 1,1 C 0,0 km/h (0 Bft)
15.11.2007 17:23 0,9 C 75 % 1023,5 hPa 0,0 l/m 0,0 km/h (0 Bft) N-NO 15 0 min 0 W/m -3,0 C 0,9 C 0,0 km/h (0 Bft)
15.11.2007 17:28 0,7 C 75 % 1023,5 hPa 0,0 l/m 0,0 km/h (0 Bft) N-NO 15 0 min 0 W/m -3,2 C 0,7 C 0,0 km/h (0 Bft)
15.11.2007 17:33 0,7 C 75 % 1023,5 hPa 0,0 l/m 0,0 km/h (0 Bft) N-NO 15 0 min 0 W/m -3,2 C 0,7 C 0,0 km/h (0 Bft)
15.11.2007 17:38 0,7 C 76 % 1023,5 hPa 0,0 l/m 0,0 km/h (0 Bft) N-NO 15 0 min 0 W/m -3,0 C 0,7 C 0,0 km/h (0 Bft)
15.11.2007 17:43 0,7 C 77 % 1023,5 hPa 0,0 l/m 0,0 km/h (0 Bft) N-NO 15 0 min 0 W/m -2,9 C 0,7 C 0,0 km/h (0 Bft)
15.11.2007 17:48 0,8 C 77 % 1023,5 hPa 0,0 l/m 0,0 km/h (0 Bft) N-NO 15 0 min 0 W/m -2,8 C 0,8 C 0,0 km/h (0 Bft)
15.11.2007 17:52 1,0 C 77 % 1023,5 hPa 0,0 l/m 0,0 km/h (0 Bft) N-NO 15 0 min 0 W/m -2,6 C 1,0 C 0,0 km/h (0 Bft)
15.11.2007 17:58 1,1 C 77 % 1023,5 hPa 0,0 l/m 0,0 km/h (0 Bft) N-NO 15 0 min 0 W/m -2,5 C 1,1 C 0,0 km/h (0 Bft)
15.11.2007 18:03 1,2 C 78 % 1023,5 hPa 0,0 l/m 0,0 km/h (0 Bft) N-NO 15 0 min 0 W/m -2,2 C 1,2 C 0,0 km/h (0 Bft)
15.11.2007 18:08 1,2 C 78 % 1023,5 hPa 0,0 l/m 0,0 km/h (0 Bft) N-NO 15 0 min 0 W/m -2,2 C 1,2 C 0,0 km/h (0 Bft)
15.11.2007 18:13 1,2 C 78 % 1023,5 hPa 0,0 l/m 0,0 km/h (0 Bft) N-NO 15 0 min 0 W/m -2,2 C 1,2 C 0,0 km/h (0 Bft)
15.11.2007 18:18 1,3 C 78 % 1023,5 hPa 0,0 l/m 0,0 km/h (0 Bft) N-NO 15 0 min 0 W/m -2,1 C 1,3 C 0,0 km/h (0 Bft)
15.11.2007 18:23 1,4 C 78 % 1023,5 hPa 0,0 l/m 0,0 km/h (0 Bft) N-NO 15 0 min 0 W/m -2,0 C 1,4 C 0,0 km/h (0 Bft)
15.11.2007 18:28 1,5 C 78 % 1023,5 hPa 0,0 l/m 0,0 km/h (0 Bft) N-NO 15 0 min 0 W/m -1,9 C 1,5 C 0,0 km/h (0 Bft)
15.11.2007 18:33 1,6 C 78 % 1023,5 hPa 0,0 l/m 0,0 km/h (0 Bft) N-NO 15 0 min 0 W/m -1,8 C 1,6 C 0,0 km/h (0 Bft)
15.11.2007 18:38 1,6 C 78 % 1023,5 hPa 0,0 l/m 0,0 km/h (0 Bft) N-NO 15 0 min 0 W/m -1,8 C 1,6 C 0,0 km/h (0 Bft)
15.11.2007 18:43 1,6 C 78 % 1023,5 hPa 0,0 l/m 0,0 km/h (0 Bft) N-NO 15 0 min 0 W/m -1,8 C 1,6 C 0,0 km/h (0 Bft)
15.11.2007 18:48 1,7 C 78 % 1023,5 hPa 0,0 l/m 0,0 km/h (0 Bft) N-NO 15 0 min 0 W/m -1,7 C 1,7 C 0,0 km/h (0 Bft)
15.11.2007 18:53 1,7 C 79 % 1023,5 hPa 0,0 l/m 3,8 km/h (1 Bft) W-SW 240 0 min 0 W/m -1,5 C 1,7 C 3,8 km/h (1 Bft)
15.11.2007 18:58 1,8 C 79 % 1023,5 hPa 0,0 l/m 0,3 km/h (0 Bft) W-SW 240 0 min 0 W/m -1,4 C 1,8 C 0,3 km/h (0 Bft)
15.11.2007 19:03 1,8 C 79 % 1023,5 hPa 0,0 l/m 3,5 km/h (1 Bft) W-SW 240 0 min 0 W/m -1,4 C 1,8 C 3,5 km/h (1 Bft)
15.11.2007 19:08 1,8 C 79 % 1023,5 hPa 0,0 l/m 6,3 km/h (2 Bft) SW 225 0 min 0 W/m -1,4 C 1,8 C 6,3 km/h (2 Bft)
15.11.2007 19:13 1,8 C 79 % 1023,5 hPa 0,0 l/m 6,1 km/h (2 Bft) SW 225 0 min 0 W/m -1,4 C 1,8 C 6,1 km/h (2 Bft)
15.11.2007 19:18 1,9 C 78 % 1023,5 hPa 0,0 l/m 5,8 km/h (2 Bft) W-SW 240 0 min 0 W/m -1,5 C 1,9 C 5,8 km/h (2 Bft)
15.11.2007 19:23 1,9 C 77 % 1023,5 hPa 0,0 l/m 7,0 km/h (2 Bft) W-SW 250 0 min 0 W/m -1,7 C 1,3 C 7,0 km/h (2 Bft)
15.11.2007 19:28 2,0 C 77 % 1023,5 hPa 0,0 l/m 3,9 km/h (1 Bft) W-SW 250 0 min 0 W/m -1,6 C 2,0 C 3,9 km/h (1 Bft)
15.11.2007 19:33 2,0 C 77 % 1023,5 hPa 0,0 l/m 3,1 km/h (1 Bft) W-SW 250 0 min 0 W/m -1,6 C 2,0 C 3,1 km/h (1 Bft)
15.11.2007 19:38 2,1 C 77 % 1023,5 hPa 0,0 l/m 0,1 km/h (0 Bft) W-SW 250 0 min 0 W/m -1,5 C 2,1 C 0,1 km/h (0 Bft)
15.11.2007 19:43 2,1 C 77 % 1023,5 hPa 0,0 l/m 3,3 km/h (1 Bft) W-SW 250 0 min 0 W/m -1,5 C 2,1 C 3,3 km/h (1 Bft)
15.11.2007 19:48 2,1 C 77 % 1024,5 hPa 0,0 l/m 2,8 km/h (1 Bft) W-SW 250 0 min 0 W/m -1,5 C 2,1 C 2,8 km/h (1 Bft)
15.11.2007 19:53 2,3 C 77 % 1023,5 hPa 0,0 l/m 0,1 km/h (0 Bft) W-SW 250 0 min 0 W/m -1,3 C 2,3 C 0,1 km/h (0 Bft)
15.11.2007 19:58 2,3 C 77 % 1023,5 hPa 0,0 l/m 6,6 km/h (2 Bft) W-SW 250 0 min 0 W/m -1,3 C 2,1 C 6,6 km/h (2 Bft)
15.11.2007 20:03 2,3 C 78 % 1023,5 hPa 0,0 l/m 0,3 km/h (0 Bft) W-SW 250 0 min 0 W/m -1,1 C 2,3 C 0,3 km/h (0 Bft)
15.11.2007 20:08 2,3 C 78 % 1023,5 hPa 0,0 l/m 2,4 km/h (1 Bft) W-SW 250 0 min 0 W/m -1,1 C 2,3 C 2,4 km/h (1 Bft)
15.11.2007 20:13 2,3 C 78 % 1023,5 hPa 0,0 l/m 6,2 km/h (2 Bft) SW 225 0 min 0 W/m -1,1 C 2,3 C 6,2 km/h (2 Bft)
15.11.2007 20:18 2,4 C 78 % 1023,5 hPa 0,0 l/m 4,8 km/h (1 Bft) S-SW 205 0 min 0 W/m -1,0 C 2,4 C 4,8 km/h (1 Bft)
15.11.2007 20:23 2,4 C 78 % 1023,5 hPa 0,0 l/m 4,9 km/h (1 Bft) S-SW 210 0 min 0 W/m -1,0 C 2,4 C 4,9 km/h (1 Bft)
15.11.2007 20:28 2,4 C 78 % 1023,5 hPa 0,0 l/m 4,2 km/h (1 Bft) S-SW 210 0 min 0 W/m -1,0 C 2,4 C 4,2 km/h (1 Bft)
15.11.2007 20:33 2,4 C 78 % 1023,5 hPa 0,0 l/m 6,5 km/h (2 Bft) S-SW 210 0 min 0 W/m -1,0 C 2,3 C 6,5 km/h (2 Bft)
15.11.2007 20:38 2,5 C 78 % 1023,5 hPa 0,0 l/m 4,6 km/h (1 Bft) S-SW 210 0 min 0 W/m -0,9 C 2,5 C 4,6 km/h (1 Bft)
15.11.2007 20:43 2,5 C 79 % 1023,5 hPa 0,0 l/m 3,3 km/h (1 Bft) S-SW 205 0 min 0 W/m -0,8 C 2,5 C 3,3 km/h (1 Bft)
15.11.2007 20:48 2,5 C 79 % 1023,5 hPa 0,0 l/m 1,2 km/h (1 Bft) S-SW 200 0 min 0 W/m -0,8 C 2,5 C 1,2 km/h (1 Bft)
15.11.2007 20:53 2,5 C 79 % 1023,5 hPa 0,0 l/m 5,0 km/h (1 Bft) SW 220 0 min 0 W/m -0,8 C 2,5 C 5,0 km/h (1 Bft)
15.11.2007 20:58 2,5 C 79 % 1023,5 hPa 0,0 l/m 4,3 km/h (1 Bft) SW 215 0 min 0 W/m -0,8 C 2,5 C 4,3 km/h (1 Bft)
15.11.2007 21:03 2,6 C 80 % 1023,5 hPa 0,0 l/m 6,2 km/h (2 Bft) SW 215 0 min 0 W/m -0,5 C 2,6 C 6,2 km/h (2 Bft)
15.11.2007 21:08 2,5 C 80 % 1023,5 hPa 0,0 l/m 6,7 km/h (2 Bft) S-SW 210 0 min 0 W/m -0,6 C 2,2 C 6,7 km/h (2 Bft)
15.11.2007 21:13 2,6 C 80 % 1023,5 hPa 0,0 l/m 6,8 km/h (2 Bft) SW 215 0 min 0 W/m -0,5 C 2,2 C 6,8 km/h (2 Bft)
15.11.2007 21:18 2,6 C 81 % 1023,5 hPa 0,0 l/m 7,2 km/h (2 Bft) S-SW 210 0 min 0 W/m -0,3 C 1,8 C 7,2 km/h (2 Bft)
15.11.2007 21:23 2,6 C 81 % 1023,5 hPa 0,0 l/m 7,6 km/h (2 Bft) SW 215 0 min 0 W/m -0,3 C 1,5 C 7,6 km/h (2 Bft)
15.11.2007 21:28 2,6 C 81 % 1023,5 hPa 0,0 l/m 7,0 km/h (2 Bft) SW 215 0 min 0 W/m -0,3 C 2,0 C 7,0 km/h (2 Bft)
15.11.2007 21:33 2,6 C 82 % 1023,5 hPa 0,0 l/m 5,8 km/h (2 Bft) S-SW 210 0 min 0 W/m -0,2 C 2,6 C 5,8 km/h (2 Bft)
15.11.2007 21:38 2,6 C 82 % 1023,5 hPa 0,0 l/m 4,3 km/h (1 Bft) SW 215 0 min 0 W/m -0,2 C 2,6 C 4,3 km/h (1 Bft)
15.11.2007 21:43 2,7 C 83 % 1023,5 hPa 0,0 l/m 4,0 km/h (1 Bft) SW 215 0 min 0 W/m 0,1 C 2,7 C 4,0 km/h (1 Bft)
15.11.2007 21:48 2,8 C 84 % 1023,5 hPa 0,0 l/m 7,8 km/h (2 Bft) SW 230 0 min 0 W/m 0,4 C 1,5 C 7,8 km/h (2 Bft)
15.11.2007 21:52 3,0 C 86 % 1023,5 hPa 0,0 l/m 10,4 km/h (2 Bft) W-SW 250 0 min 0 W/m 0,9 C -0,4 C 10,4 km/h (2 Bft)
15.11.2007 21:58 3,3 C 87 % 1023,5 hPa 0,0 l/m 14,7 km/h (3 Bft) W-SW 255 0 min 0 W/m 1,3 C -2,8 C 14,7 km/h (3 Bft)
15.11.2007 22:04 3,5 C 87 % 1023,5 hPa 0,0 l/m 18,8 km/h (3 Bft) W-SW 255 0 min 0 W/m 1,5 C -4,6 C 18,8 km/h (3 Bft)
15.11.2007 22:09 3,7 C 86 % 1023,5 hPa 0,0 l/m 17,5 km/h (3 Bft) W-SW 250 0 min 0 W/m 1,6 C -3,8 C 17,5 km/h (3 Bft)
15.11.2007 22:14 3,8 C 86 % 1023,5 hPa 0,0 l/m 20,8 km/h (4 Bft) W-SW 255 0 min 0 W/m 1,7 C -5,0 C 20,8 km/h (4 Bft)
15.11.2007 22:19 3,9 C 86 % 1023,5 hPa 0,0 l/m 14,6 km/h (3 Bft) W-SW 255 0 min 0 W/m 1,8 C -2,0 C 14,6 km/h (3 Bft)
15.11.2007 22:24 3,9 C 86 % 1023,5 hPa 0,0 l/m 17,1 km/h (3 Bft) W-SW 250 0 min 0 W/m 1,8 C -3,3 C 17,1 km/h (3 Bft)
15.11.2007 22:29 3,9 C 86 % 1023,5 hPa 0,0 l/m 16,4 km/h (3 Bft) W-SW 250 0 min 0 W/m 1,8 C -3,0 C 16,4 km/h (3 Bft)
15.11.2007 22:34 3,8 C 86 % 1023,5 hPa 0,0 l/m 20,9 km/h (4 Bft) W 260 0 min 0 W/m 1,7 C -5,1 C 20,9 km/h (4 Bft)
15.11.2007 22:39 3,8 C 85 % 1023,5 hPa 0,0 l/m 18,1 km/h (3 Bft) W 260 0 min 0 W/m 1,5 C -3,9 C 18,1 km/h (3 Bft)
15.11.2007 22:44 3,8 C 85 % 1023,5 hPa 0,0 l/m 17,3 km/h (3 Bft) W 265 0 min 0 W/m 1,5 C -3,5 C 17,3 km/h (3 Bft)
15.11.2007 22:49 3,8 C 85 % 1023,5 hPa 0,0 l/m 18,3 km/h (3 Bft) W-SW 250 0 min 0 W/m 1,5 C -4,0 C 18,3 km/h (3 Bft)
15.11.2007 22:54 3,8 C 86 % 1023,5 hPa 0,0 l/m 24,7 km/h (4 Bft) W-SW 250 0 min 0 W/m 1,7 C -6,5 C 24,7 km/h (4 Bft)
15.11.2007 22:59 3,7 C 86 % 1023,5 hPa 0,0 l/m 24,1 km/h (4 Bft) W-SW 255 0 min 0 W/m 1,6 C -6,4 C 24,1 km/h (4 Bft)
15.11.2007 23:04 3,6 C 87 % 1023,5 hPa 0,0 l/m 16,8 km/h (3 Bft) W-SW 255 0 min 0 W/m 1,6 C -3,5 C 16,8 km/h (3 Bft)
15.11.2007 23:09 3,5 C 87 % 1023,5 hPa 0,0 l/m 20,8 km/h (4 Bft) W-SW 250 0 min 0 W/m 1,5 C -5,4 C 20,8 km/h (4 Bft)
15.11.2007 23:14 3,5 C 86 % 1023,5 hPa 0,0 l/m 18,1 km/h (3 Bft) W 260 0 min 0 W/m 1,4 C -4,3 C 18,1 km/h (3 Bft)
15.11.2007 23:19 3,6 C 86 % 1023,5 hPa 0,0 l/m 18,1 km/h (3 Bft) W-SW 255 0 min 0 W/m 1,5 C -4,2 C 18,1 km/h (3 Bft)
15.11.2007 23:24 3,6 C 86 % 1023,5 hPa 0,0 l/m 20,0 km/h (4 Bft) W 260 0 min 0 W/m 1,5 C -5,0 C 20,0 km/h (4 Bft)
15.11.2007 23:29 3,6 C 85 % 1023,5 hPa 0,0 l/m 23,5 km/h (4 Bft) W 260 0 min 0 W/m 1,3 C -6,3 C 23,5 km/h (4 Bft)
15.11.2007 23:34 3,6 C 85 % 1023,5 hPa 0,0 l/m 21,8 km/h (4 Bft) W-SW 255 0 min 0 W/m 1,3 C -5,7 C 21,8 km/h (4 Bft)
15.11.2007 23:39 3,5 C 85 % 1023,5 hPa 0,0 l/m 22,1 km/h (4 Bft) W 260 0 min 0 W/m 1,2 C -5,9 C 22,1 km/h (4 Bft)
15.11.2007 23:44 3,5 C 85 % 1023,5 hPa 0,0 l/m 19,6 km/h (3 Bft) W-SW 255 0 min 0 W/m 1,2 C -4,9 C 19,6 km/h (3 Bft)
15.11.2007 23:49 3,5 C 85 % 1023,5 hPa 0,0 l/m 17,6 km/h (3 Bft) W 260 0 min 0 W/m 1,2 C -4,0 C 17,6 km/h (3 Bft)
15.11.2007 23:54 3,5 C 85 % 1023,5 hPa 0,0 l/m 21,8 km/h (4 Bft) W 265 0 min 0 W/m 1,2 C -5,8 C 21,8 km/h (4 Bft)
15.11.2007 23:59 3,5 C 84 % 1023,5 hPa 0,0 l/m 20,4 km/h (4 Bft) W 265 0 min 0 W/m 1,1 C -5,3 C 20,4 km/h (4 Bft)
_ Min-Zeit 17:28 15:28 00:03 - 16:03 - - - - 17:28 00:18 16:03
Minimum _ 0,7 C 67 % 1019,5 hPa - 0,0 km/h (0 Bft) - - - - -3,2 C -7,7 C 0,0 km/h (0 Bft)
_ Max-Zeit 06:13 04:53 09:28 00:03 22:54 - - 00:03 00:03 04:58 06:23 22:54
Maximum _ 4,7 C 94 % 1024,5 hPa 0,0 l/m 24,7 km/h
W-SW (4 Bft)
- - 0 min 0 W/m 3,1 C 4,7 C 24,7 km/h
W-SW (4 Bft)
Durchschnitt _ 2,7 C 82 % 1023,0 hPa #0,0 l/m 8,1 km/h (2 Bft) N-NO - #0 min. 0 W/m -0,1 C 0,4 C 8,1 km/h (2 Bft)
copyright by Holger Just